AIC251 VABB-VOBL
Flight info
| Callsign | AIC251 |
|---|---|
| Flight time | N/A |
| Altitude | 37000 |
| Route | VEVAK2A EPKOS Q9 RIKBU RIKBU7E |
| Aircraft | B77W/H-SDE1E2E3FGHIJ2J3J4J5M1RWXY/LB1D1 |
Departure
| Time | 2026-04-28 14:12 |
|---|---|
| Airport | Chhatrapati Shivaji Maharaj International Airport (VABB) |
Arrival
| Time | N/A |
|---|---|
| Airport | Kempegowda International Airport Bengaluru (VOBL) |
| Time | Latitude | Longitude | Altitude | Speed | Heading |
|---|---|---|---|---|---|
| 2026-04-28 13:41 | 19.09480 | 72.87731 | 50 ft | 0 kts | 312° |
| 2026-04-28 14:00 | 19.09480 | 72.87732 | 54 ft | 1 kts | 312° |
| 2026-04-28 14:01 | 19.09470 | 72.87744 | 51 ft | 3 kts | 304° |
| 2026-04-28 14:01 | 19.09460 | 72.87762 | 49 ft | 3 kts | 286° |
| 2026-04-28 14:01 | 19.09457 | 72.87782 | 46 ft | 3 kts | 257° |
| 2026-04-28 14:01 | 19.09464 | 72.87799 | 50 ft | 2 kts | 218° |
| 2026-04-28 14:02 | 19.09468 | 72.87802 | 51 ft | 0 kts | 212° |
| 2026-04-28 14:07 | 19.09466 | 72.87801 | 50 ft | 1 kts | 212° |
| 2026-04-28 14:07 | 19.09458 | 72.87795 | 46 ft | 2 kts | 212° |
| 2026-04-28 14:07 | 19.09443 | 72.87785 | 39 ft | 3 kts | 212° |
| 2026-04-28 14:08 | 19.09422 | 72.87771 | 60 ft | 4 kts | 212° |
| 2026-04-28 14:08 | 19.09395 | 72.87754 | 48 ft | 5 kts | 208° |
| 2026-04-28 14:08 | 19.09360 | 72.87737 | 51 ft | 6 kts | 204° |
| 2026-04-28 14:08 | 19.09335 | 72.87725 | 50 ft | 6 kts | 206° |
| 2026-04-28 14:09 | 19.09278 | 72.87692 | 48 ft | 8 kts | 209° |
| 2026-04-28 14:09 | 19.09227 | 72.87675 | 50 ft | 8 kts | 184° |
| 2026-04-28 14:09 | 19.09189 | 72.87674 | 50 ft | 8 kts | 175° |
| 2026-04-28 14:09 | 19.09144 | 72.87732 | 49 ft | 9 kts | 91° |
| 2026-04-28 14:10 | 19.09124 | 72.87794 | 48 ft | 9 kts | 133° |
| 2026-04-28 14:10 | 19.09065 | 72.87826 | 50 ft | 10 kts | 131° |
| 2026-04-28 14:10 | 19.09058 | 72.87874 | 48 ft | 10 kts | 89° |
| 2026-04-28 14:10 | 19.09059 | 72.87951 | 53 ft | 10 kts | 89° |
| 2026-04-28 14:11 | 19.09054 | 72.88027 | 48 ft | 11 kts | 110° |
| 2026-04-28 14:11 | 19.08961 | 72.88053 | 51 ft | 12 kts | 180° |
| 2026-04-28 14:11 | 19.08905 | 72.88038 | 50 ft | 13 kts | 218° |
| 2026-04-28 14:11 | 19.08888 | 72.87949 | 51 ft | 13 kts | 270° |
| 2026-04-28 14:12 | 19.08886 | 72.87790 | 51 ft | 43 kts | 269° |
| 2026-04-28 14:12 | 19.08877 | 72.87186 | 54 ft | 122 kts | 269° |
| 2026-04-28 14:12 | 19.08863 | 72.86047 | 140 ft | 178 kts | 269° |
| 2026-04-28 14:12 | 19.08875 | 72.84697 | 755 ft | 186 kts | 271° |
| 2026-04-28 14:13 | 19.08885 | 72.83322 | 1617 ft | 188 kts | 271° |
| 2026-04-28 14:13 | 19.08913 | 72.81885 | 2343 ft | 195 kts | 271° |
| 2026-04-28 14:13 | 19.08880 | 72.80422 | 3052 ft | 215 kts | 269° |
| 2026-04-28 14:13 | 19.08819 | 72.78707 | 3431 ft | 251 kts | 270° |
| 2026-04-28 14:14 | 19.08764 | 72.76795 | 4263 ft | 264 kts | 271° |
| 2026-04-28 14:14 | 19.08706 | 72.74850 | 5409 ft | 265 kts | 268° |
| 2026-04-28 14:14 | 19.08151 | 72.72956 | 6352 ft | 278 kts | 239° |
| 2026-04-28 14:14 | 19.06770 | 72.71522 | 7471 ft | 283 kts | 212° |
| 2026-04-28 14:15 | 19.04895 | 72.70881 | 8648 ft | 286 kts | 185° |
| 2026-04-28 14:15 | 19.02940 | 72.71216 | 9823 ft | 289 kts | 157° |
| 2026-04-28 14:15 | 19.01272 | 72.72457 | 10619 ft | 301 kts | 140° |
| 2026-04-28 14:15 | 18.99521 | 72.73857 | 10883 ft | 332 kts | 151° |
| 2026-04-28 14:16 | 18.97314 | 72.74881 | 11217 ft | 358 kts | 166° |
| 2026-04-28 14:16 | 18.94849 | 72.75217 | 12020 ft | 366 kts | 181° |
| 2026-04-28 14:16 | 18.92298 | 72.75056 | 13032 ft | 370 kts | 187° |
| 2026-04-28 14:16 | 18.89694 | 72.74795 | 13983 ft | 377 kts | 186° |
| 2026-04-28 14:17 | 18.87043 | 72.74585 | 14833 ft | 385 kts | 184° |
| 2026-04-28 14:17 | 18.84330 | 72.74456 | 15654 ft | 393 kts | 182° |
| 2026-04-28 14:17 | 18.81592 | 72.74375 | 16399 ft | 403 kts | 182° |
| 2026-04-28 14:17 | 18.78758 | 72.74312 | 17279 ft | 406 kts | 180° |
| 2026-04-28 14:18 | 18.75967 | 72.74682 | 17964 ft | 410 kts | 163° |
| 2026-04-28 14:18 | 18.73214 | 72.75634 | 18507 ft | 421 kts | 160° |
| 2026-04-28 14:18 | 18.70429 | 72.76665 | 19270 ft | 425 kts | 161° |
| 2026-04-28 14:18 | 18.67619 | 72.77706 | 20212 ft | 426 kts | 161° |
| 2026-04-28 14:19 | 18.64807 | 72.78730 | 21068 ft | 429 kts | 162° |
| 2026-04-28 14:19 | 18.61994 | 72.79735 | 21803 ft | 435 kts | 162° |
| 2026-04-28 14:19 | 18.59093 | 72.80756 | 22536 ft | 441 kts | 163° |
| 2026-04-28 14:19 | 18.56147 | 72.81783 | 23293 ft | 447 kts | 163° |
| 2026-04-28 14:20 | 18.53183 | 72.82811 | 23916 ft | 451 kts | 163° |
| 2026-04-28 14:20 | 18.50207 | 72.83841 | 24524 ft | 456 kts | 164° |
| 2026-04-28 14:20 | 18.47150 | 72.84899 | 25136 ft | 461 kts | 164° |
| 2026-04-28 14:20 | 18.44085 | 72.85960 | 25747 ft | 466 kts | 165° |
| 2026-04-28 14:21 | 18.41018 | 72.87022 | 26343 ft | 470 kts | 165° |
| 2026-04-28 14:21 | 18.37902 | 72.88101 | 26931 ft | 475 kts | 165° |
| 2026-04-28 14:21 | 18.34737 | 72.89197 | 27505 ft | 480 kts | 165° |
| 2026-04-28 14:21 | 18.31542 | 72.90302 | 28050 ft | 484 kts | 166° |
| 2026-04-28 14:22 | 18.28315 | 72.91419 | 28587 ft | 489 kts | 166° |
| 2026-04-28 14:22 | 18.25071 | 72.92541 | 29105 ft | 493 kts | 167° |
| 2026-04-28 14:22 | 18.21793 | 72.93674 | 29624 ft | 498 kts | 167° |
| 2026-04-28 14:22 | 18.18524 | 72.94805 | 30073 ft | 502 kts | 167° |
| 2026-04-28 14:23 | 18.15188 | 72.95959 | 30498 ft | 505 kts | 167° |
| 2026-04-28 14:23 | 18.11829 | 72.97119 | 30923 ft | 508 kts | 167° |
| 2026-04-28 14:23 | 18.08536 | 72.98494 | 31277 ft | 517 kts | 156° |
| 2026-04-28 14:23 | 18.05627 | 73.00709 | 31684 ft | 524 kts | 141° |
| 2026-04-28 14:24 | 18.02935 | 73.03341 | 32113 ft | 526 kts | 140° |
| 2026-04-28 14:24 | 18.00276 | 73.06002 | 32648 ft | 526 kts | 140° |
| 2026-04-28 14:24 | 17.97663 | 73.08609 | 33250 ft | 523 kts | 140° |
| 2026-04-28 14:24 | 17.95004 | 73.11228 | 33854 ft | 520 kts | 140° |
| 2026-04-28 14:25 | 17.92352 | 73.13802 | 34307 ft | 519 kts | 140° |
| 2026-04-28 14:25 | 17.89686 | 73.16362 | 34773 ft | 517 kts | 140° |
| 2026-04-28 14:25 | 17.87044 | 73.18881 | 35269 ft | 515 kts | 140° |
| 2026-04-28 14:25 | 17.84386 | 73.21407 | 35782 ft | 513 kts | 140° |
| 2026-04-28 14:26 | 17.81739 | 73.23921 | 36296 ft | 511 kts | 140° |
| 2026-04-28 14:26 | 17.79144 | 73.26387 | 36749 ft | 510 kts | 140° |
| 2026-04-28 14:26 | 17.73822 | 73.31444 | 36812 ft | 516 kts | 140° |
| 2026-04-28 14:27 | 17.68548 | 73.36462 | 36806 ft | 511 kts | 140° |
| 2026-04-28 14:27 | 17.63277 | 73.41472 | 36824 ft | 510 kts | 140° |
| 2026-04-28 14:28 | 17.58016 | 73.46465 | 36827 ft | 515 kts | 140° |
| 2026-04-28 14:28 | 17.52610 | 73.51590 | 36843 ft | 528 kts | 140° |
| 2026-04-28 14:29 | 17.47118 | 73.56793 | 36838 ft | 538 kts | 140° |
| 2026-04-28 14:29 | 17.41568 | 73.62052 | 36830 ft | 539 kts | 140° |
| 2026-04-28 14:30 | 17.36010 | 73.67316 | 36831 ft | 539 kts | 140° |
| 2026-04-28 14:30 | 17.30463 | 73.72559 | 36831 ft | 539 kts | 140° |
| 2026-04-28 14:31 | 17.24893 | 73.77821 | 36834 ft | 538 kts | 140° |
| 2026-04-28 14:31 | 17.19326 | 73.83075 | 36832 ft | 536 kts | 140° |
| 2026-04-28 14:32 | 17.13810 | 73.88277 | 36847 ft | 535 kts | 140° |
| 2026-04-28 14:32 | 17.08279 | 73.93489 | 36825 ft | 535 kts | 141° |
| 2026-04-28 14:33 | 17.02771 | 73.98674 | 36835 ft | 534 kts | 141° |
| 2026-04-28 14:33 | 16.97320 | 74.03802 | 36839 ft | 535 kts | 141° |
| 2026-04-28 14:34 | 16.89029 | 74.11600 | 36837 ft | 536 kts | 140° |
| 2026-04-28 14:35 | 16.84077 | 74.17403 | 36868 ft | 540 kts | 130° |
| 2026-04-28 14:35 | 16.79543 | 74.23715 | 36877 ft | 541 kts | 129° |
| 2026-04-28 14:36 | 16.74987 | 74.29958 | 36877 ft | 541 kts | 131° |
| 2026-04-28 14:36 | 16.70327 | 74.36118 | 36893 ft | 542 kts | 131° |
| 2026-04-28 14:37 | 16.65617 | 74.42283 | 36898 ft | 542 kts | 131° |
| 2026-04-28 14:37 | 16.60939 | 74.48418 | 36881 ft | 543 kts | 131° |
| 2026-04-28 14:38 | 16.56234 | 74.54599 | 36849 ft | 543 kts | 131° |
| 2026-04-28 14:38 | 16.51556 | 74.60740 | 36822 ft | 543 kts | 131° |
| 2026-04-28 14:39 | 16.46841 | 74.66922 | 36788 ft | 543 kts | 131° |
| 2026-04-28 14:39 | 16.42166 | 74.73051 | 36798 ft | 542 kts | 131° |
| 2026-04-28 14:40 | 16.37468 | 74.79209 | 36787 ft | 542 kts | 131° |
| 2026-04-28 14:40 | 16.32772 | 74.85360 | 36796 ft | 542 kts | 131° |
| 2026-04-28 14:41 | 16.28084 | 74.91495 | 36797 ft | 541 kts | 131° |
| 2026-04-28 14:41 | 16.23414 | 74.97601 | 36796 ft | 541 kts | 131° |
| 2026-04-28 14:42 | 16.18779 | 75.03657 | 36804 ft | 541 kts | 131° |
| 2026-04-28 14:42 | 16.14076 | 75.09796 | 36795 ft | 542 kts | 131° |
| 2026-04-28 14:43 | 16.09393 | 75.15903 | 36811 ft | 542 kts | 131° |
| 2026-04-28 14:43 | 16.04676 | 75.22049 | 36796 ft | 543 kts | 131° |